sensor_id;sensor_type;location;lat;lon;timestamp;P1;durP1;ratioP1;P2;durP2;ratioP2
38123;SDS011;23934;47.998;9.832;2023-05-23T00:01:41;41.40;;;13.45;;
38123;SDS011;23934;47.998;9.832;2023-05-23T00:04:09;29.23;;;12.18;;
38123;SDS011;23934;47.998;9.832;2023-05-23T00:06:41;30.23;;;12.30;;
38123;SDS011;23934;47.998;9.832;2023-05-23T00:09:10;23.83;;;10.32;;
38123;SDS011;23934;47.998;9.832;2023-05-23T00:11:36;29.95;;;11.98;;
38123;SDS011;23934;47.998;9.832;2023-05-23T00:14:02;34.40;;;12.90;;
38123;SDS011;23934;47.998;9.832;2023-05-23T00:16:28;31.55;;;12.63;;
38123;SDS011;23934;47.998;9.832;2023-05-23T00:18:54;35.85;;;13.85;;
38123;SDS011;23934;47.998;9.832;2023-05-23T00:21:23;30.63;;;11.85;;
38123;SDS011;23934;47.998;9.832;2023-05-23T00:23:49;32.50;;;12.40;;
38123;SDS011;23934;47.998;9.832;2023-05-23T00:26:15;36.67;;;13.73;;
38123;SDS011;23934;47.998;9.832;2023-05-23T00:28:40;34.10;;;14.40;;
38123;SDS011;23934;47.998;9.832;2023-05-23T00:31:06;37.03;;;14.40;;
38123;SDS011;23934;47.998;9.832;2023-05-23T00:33:32;38.70;;;13.05;;
38123;SDS011;23934;47.998;9.832;2023-05-23T00:35:59;30.75;;;12.73;;
38123;SDS011;23934;47.998;9.832;2023-05-23T00:38:25;31.13;;;12.75;;
38123;SDS011;23934;47.998;9.832;2023-05-23T00:40:52;42.42;;;15.07;;
38123;SDS011;23934;47.998;9.832;2023-05-23T00:43:18;39.22;;;13.70;;
38123;SDS011;23934;47.998;9.832;2023-05-23T00:45:47;39.90;;;13.60;;
38123;SDS011;23934;47.998;9.832;2023-05-23T00:48:13;37.67;;;14.10;;
38123;SDS011;23934;47.998;9.832;2023-05-23T00:50:40;38.80;;;14.77;;
38123;SDS011;23934;47.998;9.832;2023-05-23T00:53:06;36.38;;;14.25;;
38123;SDS011;23934;47.998;9.832;2023-05-23T00:55:32;33.22;;;12.57;;
38123;SDS011;23934;47.998;9.832;2023-05-23T00:57:58;34.58;;;13.35;;
38123;SDS011;23934;47.998;9.832;2023-05-23T01:00:24;39.30;;;14.57;;
38123;SDS011;23934;47.998;9.832;2023-05-23T01:02:51;38.80;;;12.88;;
38123;SDS011;23934;47.998;9.832;2023-05-23T01:05:17;40.33;;;15.35;;
38123;SDS011;23934;47.998;9.832;2023-05-23T01:07:44;36.05;;;13.10;;
38123;SDS011;23934;47.998;9.832;2023-05-23T01:10:10;45.88;;;14.10;;
38123;SDS011;23934;47.998;9.832;2023-05-23T01:12:53;33.45;;;13.60;;
38123;SDS011;23934;47.998;9.832;2023-05-23T01:15:22;39.42;;;14.40;;
38123;SDS011;23934;47.998;9.832;2023-05-23T01:17:54;41.60;;;16.42;;
38123;SDS011;23934;47.998;9.832;2023-05-23T01:20:37;42.80;;;16.27;;
38123;SDS011;23934;47.998;9.832;2023-05-23T01:23:12;39.17;;;13.50;;
38123;SDS011;23934;47.998;9.832;2023-05-23T01:25:46;39.20;;;14.45;;
38123;SDS011;23934;47.998;9.832;2023-05-23T01:28:15;42.25;;;15.10;;
38123;SDS011;23934;47.998;9.832;2023-05-23T01:30:42;34.85;;;12.82;;
38123;SDS011;23934;47.998;9.832;2023-05-23T01:33:10;39.70;;;14.15;;
38123;SDS011;23934;47.998;9.832;2023-05-23T01:35:38;41.38;;;14.07;;
38123;SDS011;23934;47.998;9.832;2023-05-23T01:38:05;37.90;;;13.82;;
38123;SDS011;23934;47.998;9.832;2023-05-23T01:40:30;42.45;;;15.85;;
38123;SDS011;23934;47.998;9.832;2023-05-23T01:42:56;46.60;;;15.70;;
38123;SDS011;23934;47.998;9.832;2023-05-23T01:45:23;44.50;;;15.13;;
38123;SDS011;23934;47.998;9.832;2023-05-23T01:47:50;45.03;;;15.52;;
38123;SDS011;23934;47.998;9.832;2023-05-23T01:50:17;39.67;;;15.57;;
38123;SDS011;23934;47.998;9.832;2023-05-23T01:52:43;45.85;;;14.80;;
38123;SDS011;23934;47.998;9.832;2023-05-23T01:58:13;35.47;;;13.85;;
38123;SDS011;23934;47.998;9.832;2023-05-23T02:00:39;37.97;;;13.88;;
38123;SDS011;23934;47.998;9.832;2023-05-23T02:03:05;37.17;;;13.38;;
38123;SDS011;23934;47.998;9.832;2023-05-23T02:05:31;42.67;;;14.68;;
38123;SDS011;23934;47.998;9.832;2023-05-23T02:07:57;41.75;;;15.63;;
38123;SDS011;23934;47.998;9.832;2023-05-23T02:10:23;37.50;;;13.82;;
38123;SDS011;23934;47.998;9.832;2023-05-23T02:12:49;45.05;;;15.02;;
38123;SDS011;23934;47.998;9.832;2023-05-23T02:15:15;38.92;;;15.43;;
38123;SDS011;23934;47.998;9.832;2023-05-23T02:17:41;43.20;;;15.20;;
38123;SDS011;23934;47.998;9.832;2023-05-23T02:20:07;44.78;;;14.98;;
38123;SDS011;23934;47.998;9.832;2023-05-23T02:22:37;38.47;;;14.23;;
38123;SDS011;23934;47.998;9.832;2023-05-23T02:25:03;35.50;;;13.63;;
38123;SDS011;23934;47.998;9.832;2023-05-23T02:27:29;39.75;;;13.95;;
38123;SDS011;23934;47.998;9.832;2023-05-23T02:29:55;41.75;;;15.15;;
38123;SDS011;23934;47.998;9.832;2023-05-23T02:32:21;44.83;;;15.10;;
38123;SDS011;23934;47.998;9.832;2023-05-23T02:34:47;47.55;;;16.02;;
38123;SDS011;23934;47.998;9.832;2023-05-23T02:37:14;47.28;;;15.65;;
38123;SDS011;23934;47.998;9.832;2023-05-23T02:39:40;40.65;;;14.73;;
38123;SDS011;23934;47.998;9.832;2023-05-23T02:42:06;50.85;;;15.60;;
38123;SDS011;23934;47.998;9.832;2023-05-23T02:44:32;45.90;;;14.38;;
38123;SDS011;23934;47.998;9.832;2023-05-23T02:46:58;51.33;;;16.63;;
38123;SDS011;23934;47.998;9.832;2023-05-23T02:49:24;41.80;;;13.73;;
38123;SDS011;23934;47.998;9.832;2023-05-23T02:51:50;43.83;;;16.02;;
38123;SDS011;23934;47.998;9.832;2023-05-23T02:54:16;48.22;;;15.65;;
38123;SDS011;23934;47.998;9.832;2023-05-23T02:56:43;39.63;;;14.35;;
38123;SDS011;23934;47.998;9.832;2023-05-23T02:59:09;46.00;;;14.60;;
38123;SDS011;23934;47.998;9.832;2023-05-23T03:01:36;40.45;;;13.98;;
38123;SDS011;23934;47.998;9.832;2023-05-23T03:04:02;34.20;;;12.70;;
38123;SDS011;23934;47.998;9.832;2023-05-23T03:06:28;43.63;;;15.43;;
38123;SDS011;23934;47.998;9.832;2023-05-23T03:08:56;45.85;;;14.30;;
38123;SDS011;23934;47.998;9.832;2023-05-23T03:11:22;40.70;;;14.00;;
38123;SDS011;23934;47.998;9.832;2023-05-23T03:13:48;38.67;;;13.82;;
38123;SDS011;23934;47.998;9.832;2023-05-23T03:16:13;41.97;;;15.32;;
38123;SDS011;23934;47.998;9.832;2023-05-23T03:18:39;46.47;;;15.45;;
38123;SDS011;23934;47.998;9.832;2023-05-23T03:21:06;40.08;;;14.93;;
38123;SDS011;23934;47.998;9.832;2023-05-23T03:23:33;45.80;;;14.73;;
38123;SDS011;23934;47.998;9.832;2023-05-23T03:26:00;61.47;;;16.17;;
38123;SDS011;23934;47.998;9.832;2023-05-23T03:28:27;40.10;;;14.55;;
38123;SDS011;23934;47.998;9.832;2023-05-23T03:30:53;41.55;;;14.30;;
38123;SDS011;23934;47.998;9.832;2023-05-23T03:33:19;49.20;;;16.15;;
38123;SDS011;23934;47.998;9.832;2023-05-23T03:35:45;43.95;;;15.95;;
38123;SDS011;23934;47.998;9.832;2023-05-23T03:38:11;39.05;;;15.50;;
38123;SDS011;23934;47.998;9.832;2023-05-23T03:40:37;43.78;;;14.25;;
38123;SDS011;23934;47.998;9.832;2023-05-23T03:43:07;47.17;;;14.07;;
38123;SDS011;23934;47.998;9.832;2023-05-23T03:45:33;45.35;;;14.82;;
38123;SDS011;23934;47.998;9.832;2023-05-23T03:47:59;43.10;;;14.77;;
38123;SDS011;23934;47.998;9.832;2023-05-23T03:50:25;43.03;;;14.93;;
38123;SDS011;23934;47.998;9.832;2023-05-23T03:52:52;47.00;;;16.75;;
38123;SDS011;23934;47.998;9.832;2023-05-23T03:55:19;49.40;;;17.20;;
38123;SDS011;23934;47.998;9.832;2023-05-23T03:57:48;54.22;;;18.13;;
38123;SDS011;23934;47.998;9.832;2023-05-23T04:00:15;57.53;;;18.20;;
38123;SDS011;23934;47.998;9.832;2023-05-23T04:02:41;63.03;;;19.05;;
38123;SDS011;23934;47.998;9.832;2023-05-23T04:05:07;58.42;;;19.35;;
38123;SDS011;23934;47.998;9.832;2023-05-23T04:07:34;56.58;;;17.58;;
38123;SDS011;23934;47.998;9.832;2023-05-23T04:10:00;55.13;;;18.33;;
38123;SDS011;23934;47.998;9.832;2023-05-23T04:12:26;62.67;;;19.55;;
38123;SDS011;23934;47.998;9.832;2023-05-23T04:14:54;68.18;;;18.33;;
38123;SDS011;23934;47.998;9.832;2023-05-23T04:17:21;62.33;;;17.80;;
38123;SDS011;23934;47.998;9.832;2023-05-23T04:19:47;61.10;;;18.00;;
38123;SDS011;23934;47.998;9.832;2023-05-23T04:22:13;58.63;;;18.45;;
38123;SDS011;23934;47.998;9.832;2023-05-23T04:24:39;60.50;;;19.63;;
38123;SDS011;23934;47.998;9.832;2023-05-23T04:27:05;62.70;;;19.23;;
38123;SDS011;23934;47.998;9.832;2023-05-23T04:29:31;63.30;;;19.05;;
38123;SDS011;23934;47.998;9.832;2023-05-23T04:32:06;59.75;;;18.30;;
38123;SDS011;23934;47.998;9.832;2023-05-23T04:34:33;44.33;;;16.02;;
38123;SDS011;23934;47.998;9.832;2023-05-23T04:36:59;38.40;;;15.50;;
38123;SDS011;23934;47.998;9.832;2023-05-23T04:39:26;39.78;;;14.30;;
38123;SDS011;23934;47.998;9.832;2023-05-23T04:41:53;49.05;;;18.63;;
38123;SDS011;23934;47.998;9.832;2023-05-23T04:44:20;51.92;;;16.80;;
38123;SDS011;23934;47.998;9.832;2023-05-23T04:46:46;49.58;;;17.50;;
38123;SDS011;23934;47.998;9.832;2023-05-23T04:49:14;47.50;;;16.00;;
38123;SDS011;23934;47.998;9.832;2023-05-23T04:51:40;40.55;;;15.73;;
38123;SDS011;23934;47.998;9.832;2023-05-23T04:54:06;36.47;;;14.70;;
38123;SDS011;23934;47.998;9.832;2023-05-23T04:56:32;34.47;;;13.75;;
38123;SDS011;23934;47.998;9.832;2023-05-23T04:58:58;33.90;;;13.05;;
38123;SDS011;23934;47.998;9.832;2023-05-23T05:01:24;28.42;;;12.18;;
38123;SDS011;23934;47.998;9.832;2023-05-23T05:03:51;33.05;;;13.52;;
38123;SDS011;23934;47.998;9.832;2023-05-23T05:06:17;34.05;;;14.05;;
38123;SDS011;23934;47.998;9.832;2023-05-23T05:08:45;33.35;;;14.35;;
38123;SDS011;23934;47.998;9.832;2023-05-23T05:11:11;34.03;;;13.70;;
38123;SDS011;23934;47.998;9.832;2023-05-23T05:13:37;33.97;;;14.05;;
38123;SDS011;23934;47.998;9.832;2023-05-23T05:16:03;40.00;;;14.25;;
38123;SDS011;23934;47.998;9.832;2023-05-23T05:18:29;33.83;;;15.07;;
38123;SDS011;23934;47.998;9.832;2023-05-23T05:20:55;38.75;;;15.05;;
38123;SDS011;23934;47.998;9.832;2023-05-23T05:23:23;32.65;;;14.45;;
38123;SDS011;23934;47.998;9.832;2023-05-23T05:25:49;49.38;;;15.40;;
38123;SDS011;23934;47.998;9.832;2023-05-23T05:28:15;42.17;;;15.25;;
38123;SDS011;23934;47.998;9.832;2023-05-23T05:30:41;34.22;;;13.65;;
38123;SDS011;23934;47.998;9.832;2023-05-23T05:33:12;44.15;;;15.65;;
38123;SDS011;23934;47.998;9.832;2023-05-23T05:35:38;36.00;;;14.70;;
38123;SDS011;23934;47.998;9.832;2023-05-23T05:38:04;38.88;;;15.38;;
38123;SDS011;23934;47.998;9.832;2023-05-23T05:40:31;31.83;;;12.77;;
38123;SDS011;23934;47.998;9.832;2023-05-23T05:42:57;36.50;;;14.63;;
38123;SDS011;23934;47.998;9.832;2023-05-23T05:45:23;35.95;;;13.98;;
38123;SDS011;23934;47.998;9.832;2023-05-23T05:47:49;42.60;;;14.60;;
38123;SDS011;23934;47.998;9.832;2023-05-23T05:50:15;38.58;;;14.25;;
38123;SDS011;23934;47.998;9.832;2023-05-23T05:52:41;36.00;;;13.65;;
38123;SDS011;23934;47.998;9.832;2023-05-23T05:55:08;36.95;;;15.57;;
38123;SDS011;23934;47.998;9.832;2023-05-23T05:57:40;66.30;;;18.27;;
38123;SDS011;23934;47.998;9.832;2023-05-23T06:00:10;39.95;;;15.30;;
38123;SDS011;23934;47.998;9.832;2023-05-23T06:02:39;50.50;;;17.00;;
38123;SDS011;23934;47.998;9.832;2023-05-23T06:05:05;50.60;;;18.17;;
38123;SDS011;23934;47.998;9.832;2023-05-23T06:07:32;46.10;;;16.90;;
38123;SDS011;23934;47.998;9.832;2023-05-23T06:09:59;49.65;;;18.83;;
38123;SDS011;23934;47.998;9.832;2023-05-23T06:12:25;68.03;;;21.65;;
38123;SDS011;23934;47.998;9.832;2023-05-23T06:14:51;64.47;;;21.13;;
38123;SDS011;23934;47.998;9.832;2023-05-23T06:17:17;67.63;;;19.48;;
38123;SDS011;23934;47.998;9.832;2023-05-23T06:19:43;66.22;;;21.85;;
38123;SDS011;23934;47.998;9.832;2023-05-23T06:22:09;63.05;;;21.90;;
38123;SDS011;23934;47.998;9.832;2023-05-23T06:24:35;55.28;;;21.65;;
38123;SDS011;23934;47.998;9.832;2023-05-23T06:27:01;65.00;;;23.10;;
38123;SDS011;23934;47.998;9.832;2023-05-23T06:29:27;71.25;;;24.17;;
38123;SDS011;23934;47.998;9.832;2023-05-23T06:31:55;71.78;;;22.70;;
38123;SDS011;23934;47.998;9.832;2023-05-23T06:34:20;65.55;;;22.77;;
38123;SDS011;23934;47.998;9.832;2023-05-23T06:36:46;61.78;;;21.70;;
38123;SDS011;23934;47.998;9.832;2023-05-23T06:39:13;58.50;;;22.10;;
38123;SDS011;23934;47.998;9.832;2023-05-23T06:41:39;66.05;;;22.90;;
38123;SDS011;23934;47.998;9.832;2023-05-23T06:44:05;70.15;;;24.00;;
38123;SDS011;23934;47.998;9.832;2023-05-23T06:46:31;70.10;;;24.20;;
38123;SDS011;23934;47.998;9.832;2023-05-23T06:48:57;61.70;;;21.50;;
38123;SDS011;23934;47.998;9.832;2023-05-23T06:51:23;70.10;;;24.25;;
38123;SDS011;23934;47.998;9.832;2023-05-23T06:53:50;75.60;;;24.27;;
38123;SDS011;23934;47.998;9.832;2023-05-23T06:56:16;66.00;;;23.25;;
38123;SDS011;23934;47.998;9.832;2023-05-23T06:58:42;68.50;;;22.30;;
38123;SDS011;23934;47.998;9.832;2023-05-23T07:01:08;68.03;;;23.45;;
38123;SDS011;23934;47.998;9.832;2023-05-23T07:03:34;60.63;;;21.50;;
38123;SDS011;23934;47.998;9.832;2023-05-23T07:06:02;59.35;;;22.95;;
38123;SDS011;23934;47.998;9.832;2023-05-23T07:08:28;60.70;;;22.13;;
38123;SDS011;23934;47.998;9.832;2023-05-23T07:10:54;71.15;;;21.42;;
38123;SDS011;23934;47.998;9.832;2023-05-23T07:13:20;66.22;;;22.95;;
38123;SDS011;23934;47.998;9.832;2023-05-23T07:15:46;65.68;;;23.20;;
38123;SDS011;23934;47.998;9.832;2023-05-23T07:18:12;74.38;;;22.73;;
38123;SDS011;23934;47.998;9.832;2023-05-23T07:20:38;68.20;;;22.65;;
38123;SDS011;23934;47.998;9.832;2023-05-23T07:23:04;77.68;;;24.73;;
38123;SDS011;23934;47.998;9.832;2023-05-23T07:25:30;66.15;;;25.25;;
38123;SDS011;23934;47.998;9.832;2023-05-23T07:27:56;81.20;;;26.23;;
38123;SDS011;23934;47.998;9.832;2023-05-23T07:30:22;70.68;;;23.58;;
38123;SDS011;23934;47.998;9.832;2023-05-23T07:32:48;67.85;;;24.65;;
38123;SDS011;23934;47.998;9.832;2023-05-23T07:35:16;69.07;;;25.00;;
38123;SDS011;23934;47.998;9.832;2023-05-23T07:37:42;64.50;;;24.92;;
38123;SDS011;23934;47.998;9.832;2023-05-23T07:40:08;63.53;;;24.50;;
38123;SDS011;23934;47.998;9.832;2023-05-23T07:42:34;63.67;;;23.52;;
38123;SDS011;23934;47.998;9.832;2023-05-23T07:45:00;62.67;;;23.27;;
38123;SDS011;23934;47.998;9.832;2023-05-23T07:47:26;68.68;;;23.90;;
38123;SDS011;23934;47.998;9.832;2023-05-23T07:49:52;64.03;;;23.10;;
38123;SDS011;23934;47.998;9.832;2023-05-23T07:52:18;60.38;;;23.17;;
38123;SDS011;23934;47.998;9.832;2023-05-23T07:54:45;67.45;;;24.73;;
38123;SDS011;23934;47.998;9.832;2023-05-23T07:57:11;66.30;;;23.50;;
38123;SDS011;23934;47.998;9.832;2023-05-23T07:59:37;61.10;;;23.42;;
38123;SDS011;23934;47.998;9.832;2023-05-23T08:02:03;66.07;;;22.98;;
38123;SDS011;23934;47.998;9.832;2023-05-23T08:04:29;65.85;;;23.42;;
38123;SDS011;23934;47.998;9.832;2023-05-23T08:06:56;62.60;;;22.70;;
38123;SDS011;23934;47.998;9.832;2023-05-23T08:09:22;71.32;;;24.75;;
38123;SDS011;23934;47.998;9.832;2023-05-23T08:11:48;73.88;;;24.25;;
38123;SDS011;23934;47.998;9.832;2023-05-23T08:14:14;66.45;;;24.42;;
38123;SDS011;23934;47.998;9.832;2023-05-23T08:16:40;71.55;;;23.95;;
38123;SDS011;23934;47.998;9.832;2023-05-23T08:19:06;70.65;;;25.27;;
38123;SDS011;23934;47.998;9.832;2023-05-23T08:21:32;58.95;;;22.17;;
38123;SDS011;23934;47.998;9.832;2023-05-23T08:23:58;67.32;;;24.33;;
38123;SDS011;23934;47.998;9.832;2023-05-23T08:26:24;69.53;;;24.60;;
38123;SDS011;23934;47.998;9.832;2023-05-23T08:28:51;66.28;;;25.85;;
38123;SDS011;23934;47.998;9.832;2023-05-23T08:31:17;63.70;;;24.70;;
38123;SDS011;23934;47.998;9.832;2023-05-23T08:33:43;65.72;;;24.42;;
38123;SDS011;23934;47.998;9.832;2023-05-23T08:36:09;80.90;;;25.80;;
38123;SDS011;23934;47.998;9.832;2023-05-23T08:38:35;64.53;;;25.05;;
38123;SDS011;23934;47.998;9.832;2023-05-23T08:41:01;74.50;;;25.23;;
38123;SDS011;23934;47.998;9.832;2023-05-23T08:43:28;72.50;;;24.90;;
38123;SDS011;23934;47.998;9.832;2023-05-23T08:45:54;66.57;;;25.48;;
38123;SDS011;23934;47.998;9.832;2023-05-23T08:48:21;65.35;;;23.23;;
38123;SDS011;23934;47.998;9.832;2023-05-23T08:50:47;63.03;;;24.17;;
38123;SDS011;23934;47.998;9.832;2023-05-23T08:53:14;69.40;;;24.63;;
38123;SDS011;23934;47.998;9.832;2023-05-23T08:55:44;53.90;;;22.77;;
38123;SDS011;23934;47.998;9.832;2023-05-23T08:58:10;59.85;;;22.35;;
38123;SDS011;23934;47.998;9.832;2023-05-23T09:00:37;61.53;;;23.33;;
38123;SDS011;23934;47.998;9.832;2023-05-23T09:03:03;55.30;;;23.50;;
38123;SDS011;23934;47.998;9.832;2023-05-23T09:05:29;61.78;;;23.80;;
38123;SDS011;23934;47.998;9.832;2023-05-23T09:07:55;59.70;;;23.85;;
38123;SDS011;23934;47.998;9.832;2023-05-23T09:10:21;69.15;;;23.35;;
38123;SDS011;23934;47.998;9.832;2023-05-23T09:12:47;61.75;;;23.45;;
38123;SDS011;23934;47.998;9.832;2023-05-23T09:15:13;71.90;;;24.33;;
38123;SDS011;23934;47.998;9.832;2023-05-23T09:17:40;63.72;;;23.27;;
38123;SDS011;23934;47.998;9.832;2023-05-23T09:20:13;64.20;;;24.67;;
38123;SDS011;23934;47.998;9.832;2023-05-23T09:22:40;66.20;;;24.60;;
38123;SDS011;23934;47.998;9.832;2023-05-23T09:25:06;65.00;;;24.92;;
38123;SDS011;23934;47.998;9.832;2023-05-23T09:27:33;64.85;;;24.70;;
38123;SDS011;23934;47.998;9.832;2023-05-23T09:30:04;69.18;;;25.83;;
38123;SDS011;23934;47.998;9.832;2023-05-23T09:32:30;70.55;;;25.58;;
38123;SDS011;23934;47.998;9.832;2023-05-23T09:35:00;77.65;;;23.88;;
38123;SDS011;23934;47.998;9.832;2023-05-23T09:39:59;58.88;;;23.15;;
38123;SDS011;23934;47.998;9.832;2023-05-23T09:42:25;65.20;;;24.20;;
38123;SDS011;23934;47.998;9.832;2023-05-23T09:44:57;63.33;;;24.20;;
38123;SDS011;23934;47.998;9.832;2023-05-23T09:47:23;62.83;;;22.30;;
38123;SDS011;23934;47.998;9.832;2023-05-23T09:49:49;62.35;;;24.13;;
38123;SDS011;23934;47.998;9.832;2023-05-23T09:52:15;59.58;;;23.08;;
38123;SDS011;23934;47.998;9.832;2023-05-23T09:54:44;56.63;;;21.45;;
38123;SDS011;23934;47.998;9.832;2023-05-23T09:57:10;57.92;;;22.10;;
38123;SDS011;23934;47.998;9.832;2023-05-23T09:59:40;58.20;;;22.08;;
38123;SDS011;23934;47.998;9.832;2023-05-23T10:02:07;57.50;;;20.95;;
38123;SDS011;23934;47.998;9.832;2023-05-23T10:04:35;66.10;;;22.92;;
38123;SDS011;23934;47.998;9.832;2023-05-23T10:07:17;51.45;;;19.83;;
38123;SDS011;23934;47.998;9.832;2023-05-23T10:09:47;57.40;;;21.92;;
38123;SDS011;23934;47.998;9.832;2023-05-23T10:15:04;57.72;;;20.70;;
38123;SDS011;23934;47.998;9.832;2023-05-23T10:17:32;49.65;;;19.20;;
38123;SDS011;23934;47.998;9.832;2023-05-23T10:20:05;47.80;;;19.85;;
38123;SDS011;23934;47.998;9.832;2023-05-23T10:22:34;43.58;;;18.90;;
38123;SDS011;23934;47.998;9.832;2023-05-23T10:25:02;54.92;;;19.05;;
38123;SDS011;23934;47.998;9.832;2023-05-23T10:27:29;41.20;;;17.02;;
38123;SDS011;23934;47.998;9.832;2023-05-23T10:29:56;42.65;;;18.63;;
38123;SDS011;23934;47.998;9.832;2023-05-23T10:32:22;43.75;;;17.98;;
38123;SDS011;23934;47.998;9.832;2023-05-23T10:40:05;46.08;;;19.15;;
38123;SDS011;23934;47.998;9.832;2023-05-23T10:45:20;49.53;;;20.25;;
38123;SDS011;23934;47.998;9.832;2023-05-23T10:47:47;46.92;;;19.42;;
38123;SDS011;23934;47.998;9.832;2023-05-23T10:50:14;41.97;;;19.17;;
38123;SDS011;23934;47.998;9.832;2023-05-23T10:52:41;50.22;;;18.85;;
38123;SDS011;23934;47.998;9.832;2023-05-23T10:55:11;42.40;;;18.30;;
38123;SDS011;23934;47.998;9.832;2023-05-23T10:57:38;49.78;;;20.08;;
38123;SDS011;23934;47.998;9.832;2023-05-23T11:00:11;48.33;;;19.00;;
38123;SDS011;23934;47.998;9.832;2023-05-23T11:02:37;47.50;;;18.38;;
38123;SDS011;23934;47.998;9.832;2023-05-23T11:05:22;42.70;;;17.50;;
38123;SDS011;23934;47.998;9.832;2023-05-23T11:08:10;49.45;;;18.35;;
38123;SDS011;23934;47.998;9.832;2023-05-23T11:10:51;46.88;;;18.33;;
38123;SDS011;23934;47.998;9.832;2023-05-23T11:13:18;42.13;;;18.17;;
38123;SDS011;23934;47.998;9.832;2023-05-23T11:15:45;48.25;;;18.17;;
38123;SDS011;23934;47.998;9.832;2023-05-23T11:18:25;38.53;;;17.83;;
38123;SDS011;23934;47.998;9.832;2023-05-23T11:20:52;32.53;;;15.38;;
38123;SDS011;23934;47.998;9.832;2023-05-23T11:23:20;42.00;;;16.25;;
38123;SDS011;23934;47.998;9.832;2023-05-23T11:25:50;38.00;;;15.43;;
38123;SDS011;23934;47.998;9.832;2023-05-23T11:28:17;34.63;;;15.23;;
38123;SDS011;23934;47.998;9.832;2023-05-23T11:30:44;39.30;;;15.65;;
38123;SDS011;23934;47.998;9.832;2023-05-23T11:33:12;40.88;;;16.65;;
38123;SDS011;23934;47.998;9.832;2023-05-23T11:35:42;53.50;;;18.52;;
38123;SDS011;23934;47.998;9.832;2023-05-23T11:38:08;37.10;;;16.80;;
38123;SDS011;23934;47.998;9.832;2023-05-23T11:40:35;43.88;;;16.98;;
38123;SDS011;23934;47.998;9.832;2023-05-23T11:43:03;42.25;;;17.90;;
38123;SDS011;23934;47.998;9.832;2023-05-23T11:45:31;43.35;;;17.55;;
38123;SDS011;23934;47.998;9.832;2023-05-23T11:47:57;37.40;;;16.40;;
38123;SDS011;23934;47.998;9.832;2023-05-23T11:50:24;42.40;;;14.63;;
38123;SDS011;23934;47.998;9.832;2023-05-23T11:52:54;41.25;;;15.73;;
38123;SDS011;23934;47.998;9.832;2023-05-23T11:55:20;37.72;;;15.07;;
38123;SDS011;23934;47.998;9.832;2023-05-23T11:57:46;38.08;;;14.73;;
38123;SDS011;23934;47.998;9.832;2023-05-23T12:00:14;38.88;;;15.52;;
38123;SDS011;23934;47.998;9.832;2023-05-23T12:02:41;44.58;;;18.38;;
38123;SDS011;23934;47.998;9.832;2023-05-23T12:05:11;47.72;;;19.35;;
38123;SDS011;23934;47.998;9.832;2023-05-23T12:07:41;42.20;;;18.13;;
38123;SDS011;23934;47.998;9.832;2023-05-23T12:10:08;48.72;;;19.92;;
38123;SDS011;23934;47.998;9.832;2023-05-23T12:12:34;44.53;;;18.88;;
38123;SDS011;23934;47.998;9.832;2023-05-23T12:15:03;57.47;;;20.50;;
38123;SDS011;23934;47.998;9.832;2023-05-23T12:17:29;48.50;;;19.10;;
38123;SDS011;23934;47.998;9.832;2023-05-23T12:19:58;44.58;;;18.48;;
38123;SDS011;23934;47.998;9.832;2023-05-23T12:22:24;43.22;;;18.02;;
38123;SDS011;23934;47.998;9.832;2023-05-23T12:24:54;44.95;;;18.92;;
38123;SDS011;23934;47.998;9.832;2023-05-23T12:27:27;47.10;;;20.67;;
38123;SDS011;23934;47.998;9.832;2023-05-23T12:32:32;45.25;;;18.25;;
38123;SDS011;23934;47.998;9.832;2023-05-23T12:34:58;43.00;;;18.33;;
38123;SDS011;23934;47.998;9.832;2023-05-23T12:37:24;43.05;;;17.98;;
38123;SDS011;23934;47.998;9.832;2023-05-23T12:39:50;46.83;;;18.63;;
38123;SDS011;23934;47.998;9.832;2023-05-23T12:42:16;41.28;;;19.52;;
38123;SDS011;23934;47.998;9.832;2023-05-23T12:44:42;47.92;;;19.75;;
38123;SDS011;23934;47.998;9.832;2023-05-23T12:47:09;45.70;;;19.02;;
38123;SDS011;23934;47.998;9.832;2023-05-23T12:49:36;48.65;;;20.00;;
38123;SDS011;23934;47.998;9.832;2023-05-23T12:52:02;49.10;;;21.23;;
38123;SDS011;23934;47.998;9.832;2023-05-23T12:54:28;49.13;;;20.00;;
38123;SDS011;23934;47.998;9.832;2023-05-23T12:56:55;45.22;;;17.90;;
38123;SDS011;23934;47.998;9.832;2023-05-23T12:59:21;43.00;;;18.70;;
38123;SDS011;23934;47.998;9.832;2023-05-23T13:01:47;47.70;;;19.58;;
38123;SDS011;23934;47.998;9.832;2023-05-23T13:04:13;43.08;;;17.70;;
38123;SDS011;23934;47.998;9.832;2023-05-23T13:06:39;48.95;;;19.10;;
38123;SDS011;23934;47.998;9.832;2023-05-23T13:09:05;44.78;;;18.05;;
38123;SDS011;23934;47.998;9.832;2023-05-23T13:11:31;50.30;;;19.63;;
38123;SDS011;23934;47.998;9.832;2023-05-23T13:13:57;39.20;;;15.98;;
38123;SDS011;23934;47.998;9.832;2023-05-23T13:16:23;42.45;;;17.52;;
38123;SDS011;23934;47.998;9.832;2023-05-23T13:18:49;44.33;;;17.25;;
38123;SDS011;23934;47.998;9.832;2023-05-23T13:21:15;38.90;;;16.08;;
38123;SDS011;23934;47.998;9.832;2023-05-23T13:23:41;42.00;;;16.52;;
38123;SDS011;23934;47.998;9.832;2023-05-23T13:26:07;43.38;;;18.25;;
38123;SDS011;23934;47.998;9.832;2023-05-23T13:28:33;42.15;;;19.05;;
38123;SDS011;23934;47.998;9.832;2023-05-23T13:30:59;47.13;;;18.17;;
38123;SDS011;23934;47.998;9.832;2023-05-23T13:33:25;39.38;;;16.17;;
38123;SDS011;23934;47.998;9.832;2023-05-23T13:35:51;45.65;;;18.55;;
38123;SDS011;23934;47.998;9.832;2023-05-23T13:38:18;47.03;;;18.98;;
38123;SDS011;23934;47.998;9.832;2023-05-23T13:40:44;43.17;;;16.83;;
38123;SDS011;23934;47.998;9.832;2023-05-23T13:43:10;37.38;;;15.40;;
38123;SDS011;23934;47.998;9.832;2023-05-23T13:45:36;41.13;;;15.10;;
38123;SDS011;23934;47.998;9.832;2023-05-23T13:48:02;42.75;;;15.52;;
38123;SDS011;23934;47.998;9.832;2023-05-23T13:50:28;35.50;;;16.02;;
38123;SDS011;23934;47.998;9.832;2023-05-23T13:52:54;43.40;;;16.42;;
38123;SDS011;23934;47.998;9.832;2023-05-23T13:55:23;38.35;;;16.13;;
38123;SDS011;23934;47.998;9.832;2023-05-23T13:57:49;42.47;;;17.33;;
38123;SDS011;23934;47.998;9.832;2023-05-23T14:00:15;43.88;;;17.65;;
38123;SDS011;23934;47.998;9.832;2023-05-23T14:02:41;37.22;;;15.95;;
38123;SDS011;23934;47.998;9.832;2023-05-23T14:05:07;45.38;;;17.80;;
38123;SDS011;23934;47.998;9.832;2023-05-23T14:07:34;52.75;;;17.65;;
38123;SDS011;23934;47.998;9.832;2023-05-23T14:10:00;39.25;;;17.80;;
38123;SDS011;23934;47.998;9.832;2023-05-23T14:12:26;42.45;;;17.00;;
38123;SDS011;23934;47.998;9.832;2023-05-23T14:15:02;38.95;;;17.15;;
38123;SDS011;23934;47.998;9.832;2023-05-23T14:17:36;37.25;;;15.95;;
38123;SDS011;23934;47.998;9.832;2023-05-23T14:20:02;34.58;;;14.68;;
38123;SDS011;23934;47.998;9.832;2023-05-23T14:22:37;37.15;;;14.60;;
38123;SDS011;23934;47.998;9.832;2023-05-23T14:25:04;34.33;;;15.23;;
38123;SDS011;23934;47.998;9.832;2023-05-23T14:27:39;34.15;;;16.08;;
38123;SDS011;23934;47.998;9.832;2023-05-23T14:30:05;34.83;;;16.67;;
38123;SDS011;23934;47.998;9.832;2023-05-23T14:32:31;44.97;;;17.00;;
38123;SDS011;23934;47.998;9.832;2023-05-23T14:35:02;38.25;;;15.23;;
38123;SDS011;23934;47.998;9.832;2023-05-23T14:37:28;37.88;;;16.27;;
38123;SDS011;23934;47.998;9.832;2023-05-23T14:39:55;37.67;;;16.80;;